sensor_id;sensor_type;location;lat;lon;timestamp;pressure;altitude;pressure_sealevel;temperature;humidity
29825;BME280;16713;52.916;12.834;2022-11-23T00:01:28;99691.03;;;2.72;77.26
29825;BME280;16713;52.916;12.834;2022-11-23T00:03:57;99685.63;;;2.72;78.44
29825;BME280;16713;52.916;12.834;2022-11-23T00:06:25;99689.59;;;2.75;77.13
29825;BME280;16713;52.916;12.834;2022-11-23T00:08:52;99691.19;;;2.76;76.77
29825;BME280;16713;52.916;12.834;2022-11-23T00:11:21;99694.22;;;2.74;77.37
29825;BME280;16713;52.916;12.834;2022-11-23T00:13:48;99706.63;;;2.75;77.94
29825;BME280;16713;52.916;12.834;2022-11-23T00:16:17;99704.22;;;2.74;77.62
29825;BME280;16713;52.916;12.834;2022-11-23T00:18:44;99701.53;;;2.74;76.56
29825;BME280;16713;52.916;12.834;2022-11-23T00:21:13;99702.63;;;2.81;77.16
29825;BME280;16713;52.916;12.834;2022-11-23T00:23:40;99695.78;;;2.75;76.56
29825;BME280;16713;52.916;12.834;2022-11-23T00:26:07;99705.84;;;2.75;76.97
29825;BME280;16713;52.916;12.834;2022-11-23T00:28:34;99703.91;;;2.75;77.96
29825;BME280;16713;52.916;12.834;2022-11-23T00:31:05;99702.81;;;2.76;77.16
29825;BME280;16713;52.916;12.834;2022-11-23T00:33:32;99693.56;;;2.77;78.15
29825;BME280;16713;52.916;12.834;2022-11-23T00:36:06;99691.00;;;2.81;76.74
29825;BME280;16713;52.916;12.834;2022-11-23T00:38:33;99695.28;;;2.82;76.65
29825;BME280;16713;52.916;12.834;2022-11-23T00:41:09;99693.41;;;2.74;77.56
29825;BME280;16713;52.916;12.834;2022-11-23T00:43:36;99691.66;;;2.78;77.65
29825;BME280;16713;52.916;12.834;2022-11-23T00:46:07;99696.25;;;2.77;76.72
29825;BME280;16713;52.916;12.834;2022-11-23T00:48:36;99698.03;;;2.73;77.56
29825;BME280;16713;52.916;12.834;2022-11-23T00:51:05;99698.16;;;2.77;77.20
29825;BME280;16713;52.916;12.834;2022-11-23T00:53:33;99704.84;;;2.79;77.59
29825;BME280;16713;52.916;12.834;2022-11-23T00:55:59;99708.22;;;2.76;78.07
29825;BME280;16713;52.916;12.834;2022-11-23T00:58:26;99714.88;;;2.79;77.82
29825;BME280;16713;52.916;12.834;2022-11-23T01:01:07;99701.81;;;2.81;77.86
29825;BME280;16713;52.916;12.834;2022-11-23T01:03:37;99704.53;;;2.81;76.76
29825;BME280;16713;52.916;12.834;2022-11-23T01:06:15;99704.53;;;2.81;76.54
29825;BME280;16713;52.916;12.834;2022-11-23T01:08:42;99710.28;;;2.79;77.30
29825;BME280;16713;52.916;12.834;2022-11-23T01:11:11;99708.38;;;2.80;77.85
29825;BME280;16713;52.916;12.834;2022-11-23T01:13:39;99704.72;;;2.76;78.49
29825;BME280;16713;52.916;12.834;2022-11-23T01:16:09;99715.03;;;2.82;77.24
29825;BME280;16713;52.916;12.834;2022-11-23T01:18:38;99711.84;;;2.80;78.43
29825;BME280;16713;52.916;12.834;2022-11-23T01:21:04;99711.19;;;2.83;77.88
29825;BME280;16713;52.916;12.834;2022-11-23T01:23:31;99704.66;;;2.84;77.49
29825;BME280;16713;52.916;12.834;2022-11-23T01:26:03;99700.03;;;2.85;77.60
29825;BME280;16713;52.916;12.834;2022-11-23T01:28:30;99705.00;;;2.83;77.81
29825;BME280;16713;52.916;12.834;2022-11-23T01:31:13;99712.00;;;2.84;78.02
29825;BME280;16713;52.916;12.834;2022-11-23T01:33:40;99713.88;;;2.83;77.80
29825;BME280;16713;52.916;12.834;2022-11-23T01:36:18;99710.09;;;2.84;78.25
29825;BME280;16713;52.916;12.834;2022-11-23T01:38:46;99708.94;;;2.85;78.53
29825;BME280;16713;52.916;12.834;2022-11-23T01:41:16;99704.81;;;2.88;77.49
29825;BME280;16713;52.916;12.834;2022-11-23T01:43:43;99721.06;;;2.88;78.07
29825;BME280;16713;52.916;12.834;2022-11-23T01:46:10;99718.34;;;2.88;78.00
29825;BME280;16713;52.916;12.834;2022-11-23T01:48:43;99723.28;;;2.86;78.28
29825;BME280;16713;52.916;12.834;2022-11-23T01:51:14;99720.91;;;2.84;78.34
29825;BME280;16713;52.916;12.834;2022-11-23T01:53:42;99718.97;;;2.85;77.19
29825;BME280;16713;52.916;12.834;2022-11-23T01:56:13;99716.28;;;2.85;77.50
29825;BME280;16713;52.916;12.834;2022-11-23T01:58:44;99719.31;;;2.83;77.04
29825;BME280;16713;52.916;12.834;2022-11-23T02:01:11;99725.66;;;2.87;77.07
29825;BME280;16713;52.916;12.834;2022-11-23T02:03:41;99719.78;;;2.85;77.17
29825;BME280;16713;52.916;12.834;2022-11-23T02:06:13;99723.78;;;2.88;78.23
29825;BME280;16713;52.916;12.834;2022-11-23T02:08:41;99725.53;;;2.84;77.72
29825;BME280;16713;52.916;12.834;2022-11-23T02:11:10;99724.69;;;2.92;77.92
29825;BME280;16713;52.916;12.834;2022-11-23T02:13:38;99714.50;;;2.89;78.45
29825;BME280;16713;52.916;12.834;2022-11-23T02:16:05;99716.88;;;2.90;77.78
29825;BME280;16713;52.916;12.834;2022-11-23T02:18:33;99699.50;;;2.91;78.20
29825;BME280;16713;52.916;12.834;2022-11-23T02:21:01;99698.75;;;2.91;78.48
29825;BME280;16713;52.916;12.834;2022-11-23T02:26:42;99706.06;;;2.90;78.22
29825;BME280;16713;52.916;12.834;2022-11-23T02:29:13;99700.44;;;2.95;78.10
29825;BME280;16713;52.916;12.834;2022-11-23T02:31:41;99709.56;;;2.91;76.88
29825;BME280;16713;52.916;12.834;2022-11-23T02:34:07;99709.94;;;2.81;76.82
29825;BME280;16713;52.916;12.834;2022-11-23T02:39:16;99705.44;;;2.85;76.88
29825;BME280;16713;52.916;12.834;2022-11-23T02:41:47;99711.84;;;2.80;78.03
29825;BME280;16713;52.916;12.834;2022-11-23T02:47:10;99720.13;;;2.84;77.87
29825;BME280;16713;52.916;12.834;2022-11-23T02:49:39;99711.66;;;2.85;77.26
29825;BME280;16713;52.916;12.834;2022-11-23T02:52:06;99713.56;;;2.85;77.45
29825;BME280;16713;52.916;12.834;2022-11-23T02:54:34;99712.00;;;2.84;77.86
29825;BME280;16713;52.916;12.834;2022-11-23T02:57:00;99712.47;;;2.86;77.03
29825;BME280;16713;52.916;12.834;2022-11-23T02:59:27;99710.09;;;2.84;77.30
29825;BME280;16713;52.916;12.834;2022-11-23T03:01:54;99714.69;;;2.84;78.49
29825;BME280;16713;52.916;12.834;2022-11-23T03:04:21;99707.38;;;2.84;78.37
29825;BME280;16713;52.916;12.834;2022-11-23T03:06:53;99711.84;;;2.80;77.32
29825;BME280;16713;52.916;12.834;2022-11-23T03:09:19;99714.38;;;2.85;77.31
29825;BME280;16713;52.916;12.834;2022-11-23T03:11:46;99714.84;;;2.87;78.08
29825;BME280;16713;52.916;12.834;2022-11-23T03:14:12;99716.88;;;2.90;77.68
29825;BME280;16713;52.916;12.834;2022-11-23T03:16:38;99714.84;;;2.87;77.44
29825;BME280;16713;52.916;12.834;2022-11-23T03:19:05;99719.28;;;2.92;78.26
29825;BME280;16713;52.916;12.834;2022-11-23T03:21:31;99719.28;;;2.92;77.14
29825;BME280;16713;52.916;12.834;2022-11-23T03:23:58;99725.50;;;2.92;77.28
29825;BME280;16713;52.916;12.834;2022-11-23T03:26:24;99726.59;;;2.91;77.93
29825;BME280;16713;52.916;12.834;2022-11-23T03:28:51;99725.63;;;2.96;77.89
29825;BME280;16713;52.916;12.834;2022-11-23T03:31:17;99726.53;;;3.00;77.58
29825;BME280;16713;52.916;12.834;2022-11-23T03:33:43;99724.81;;;2.95;77.78
29825;BME280;16713;52.916;12.834;2022-11-23T03:36:10;99725.31;;;2.97;77.31
29825;BME280;16713;52.916;12.834;2022-11-23T03:38:36;99728.00;;;2.97;77.60
29825;BME280;16713;52.916;12.834;2022-11-23T03:41:03;99722.25;;;2.99;77.83
29825;BME280;16713;52.916;12.834;2022-11-23T03:43:29;99724.50;;;2.97;77.21
29825;BME280;16713;52.916;12.834;2022-11-23T03:45:55;99725.75;;;2.99;76.71
29825;BME280;16713;52.916;12.834;2022-11-23T03:48:22;99734.66;;;3.00;77.78
29825;BME280;16713;52.916;12.834;2022-11-23T03:50:48;99733.44;;;2.97;77.15
29825;BME280;16713;52.916;12.834;2022-11-23T03:53:15;99727.34;;;3.00;77.21
29825;BME280;16713;52.916;12.834;2022-11-23T03:55:41;99728.34;;;2.96;76.85
29825;BME280;16713;52.916;12.834;2022-11-23T03:58:07;99725.41;;;3.01;78.00
29825;BME280;16713;52.916;12.834;2022-11-23T04:00:34;99726.88;;;2.98;76.93
29825;BME280;16713;52.916;12.834;2022-11-23T04:03:01;99730.38;;;2.99;77.73
29825;BME280;16713;52.916;12.834;2022-11-23T04:05:27;99725.88;;;3.03;78.30
29825;BME280;16713;52.916;12.834;2022-11-23T04:07:54;99721.13;;;3.00;77.38
29825;BME280;16713;52.916;12.834;2022-11-23T04:10:20;99727.03;;;3.02;77.77
29825;BME280;16713;52.916;12.834;2022-11-23T04:12:53;99725.56;;;3.04;76.46
29825;BME280;16713;52.916;12.834;2022-11-23T04:15:19;99724.97;;;2.99;77.20
29825;BME280;16713;52.916;12.834;2022-11-23T04:17:46;99718.91;;;3.02;77.11
29825;BME280;16713;52.916;12.834;2022-11-23T04:20:13;99719.22;;;3.00;77.78
29825;BME280;16713;52.916;12.834;2022-11-23T04:22:40;99717.00;;;3.02;77.21
29825;BME280;16713;52.916;12.834;2022-11-23T04:25:06;99718.09;;;3.01;77.37
29825;BME280;16713;52.916;12.834;2022-11-23T04:27:33;99727.34;;;3.00;76.70
29825;BME280;16713;52.916;12.834;2022-11-23T04:29:59;99727.03;;;3.02;77.85
29825;BME280;16713;52.916;12.834;2022-11-23T04:32:26;99727.03;;;3.02;77.78
29825;BME280;16713;52.916;12.834;2022-11-23T04:34:52;99722.06;;;3.04;77.39
29825;BME280;16713;52.916;12.834;2022-11-23T04:37:19;99724.44;;;3.05;78.35
29825;BME280;16713;52.916;12.834;2022-11-23T04:39:45;99723.31;;;3.06;76.53
29825;BME280;16713;52.916;12.834;2022-11-23T04:42:12;99726.38;;;3.05;77.48
29825;BME280;16713;52.916;12.834;2022-11-23T04:44:39;99726.03;;;3.06;77.43
29825;BME280;16713;52.916;12.834;2022-11-23T04:47:06;99722.31;;;3.11;77.49
29825;BME280;16713;52.916;12.834;2022-11-23T04:49:32;99729.69;;;3.10;77.12
29825;BME280;16713;52.916;12.834;2022-11-23T04:51:59;99735.41;;;3.09;76.97
29825;BME280;16713;52.916;12.834;2022-11-23T04:54:26;99725.84;;;3.11;77.46
29825;BME280;16713;52.916;12.834;2022-11-23T04:56:52;99736.19;;;3.09;76.93
29825;BME280;16713;52.916;12.834;2022-11-23T04:59:19;99737.47;;;3.12;77.70
29825;BME280;16713;52.916;12.834;2022-11-23T05:01:48;99737.47;;;3.12;76.78
29825;BME280;16713;52.916;12.834;2022-11-23T05:04:14;99738.59;;;3.11;77.76
29825;BME280;16713;52.916;12.834;2022-11-23T05:06:43;99738.25;;;3.12;78.18
29825;BME280;16713;52.916;12.834;2022-11-23T05:09:10;99737.34;;;3.08;77.35
29825;BME280;16713;52.916;12.834;2022-11-23T05:11:37;99741.94;;;3.08;77.87
29825;BME280;16713;52.916;12.834;2022-11-23T05:14:03;99738.09;;;3.09;77.22
29825;BME280;16713;52.916;12.834;2022-11-23T05:16:30;99732.06;;;3.12;77.53
29825;BME280;16713;52.916;12.834;2022-11-23T05:18:56;99729.34;;;3.12;77.70
29825;BME280;16713;52.916;12.834;2022-11-23T05:21:23;99722.47;;;3.14;76.63
29825;BME280;16713;52.916;12.834;2022-11-23T05:23:49;99718.63;;;3.15;77.79
29825;BME280;16713;52.916;12.834;2022-11-23T05:26:15;99724.03;;;3.15;77.47
29825;BME280;16713;52.916;12.834;2022-11-23T05:28:42;99723.94;;;3.12;77.45
29825;BME280;16713;52.916;12.834;2022-11-23T05:31:09;99732.06;;;3.12;77.92
29825;BME280;16713;52.916;12.834;2022-11-23T05:33:35;99727.56;;;3.16;77.89
29825;BME280;16713;52.916;12.834;2022-11-23T05:36:02;99729.78;;;3.14;77.09
29825;BME280;16713;52.916;12.834;2022-11-23T05:38:28;99729.03;;;3.13;77.57
29825;BME280;16713;52.916;12.834;2022-11-23T05:40:55;99734.56;;;3.17;76.48
29825;BME280;16713;52.916;12.834;2022-11-23T05:43:21;99734.56;;;3.17;77.06
29825;BME280;16713;52.916;12.834;2022-11-23T05:45:48;99730.41;;;3.19;77.09
29825;BME280;16713;52.916;12.834;2022-11-23T05:48:15;99735.16;;;3.22;77.80
29825;BME280;16713;52.916;12.834;2022-11-23T05:50:41;99739.19;;;3.16;77.98
29825;BME280;16713;52.916;12.834;2022-11-23T05:53:08;99737.72;;;3.19;77.89
29825;BME280;16713;52.916;12.834;2022-11-23T05:55:35;99751.28;;;3.19;77.34
29825;BME280;16713;52.916;12.834;2022-11-23T05:58:01;99748.91;;;3.17;77.79
29825;BME280;16713;52.916;12.834;2022-11-23T06:00:29;99758.31;;;3.20;77.53
29825;BME280;16713;52.916;12.834;2022-11-23T06:02:59;99757.16;;;3.21;77.27
29825;BME280;16713;52.916;12.834;2022-11-23T06:05:27;99750.94;;;3.20;76.99
29825;BME280;16713;52.916;12.834;2022-11-23T06:07:54;99753.81;;;3.24;77.13
29825;BME280;16713;52.916;12.834;2022-11-23T06:10:21;99748.91;;;3.17;76.97
29825;BME280;16713;52.916;12.834;2022-11-23T06:12:48;99753.66;;;3.20;77.13
29825;BME280;16713;52.916;12.834;2022-11-23T06:15:16;99759.56;;;3.22;77.28
29825;BME280;16713;52.916;12.834;2022-11-23T06:17:43;99758.31;;;3.20;77.46
29825;BME280;16713;52.916;12.834;2022-11-23T06:20:10;99757.03;;;3.17;77.30
29825;BME280;16713;52.916;12.834;2022-11-23T06:22:36;99757.34;;;3.16;78.04
29825;BME280;16713;52.916;12.834;2022-11-23T06:25:03;99755.13;;;3.18;77.94
29825;BME280;16713;52.916;12.834;2022-11-23T06:27:29;99762.91;;;3.19;76.65
29825;BME280;16713;52.916;12.834;2022-11-23T06:29:56;99758.31;;;3.20;77.01
29825;BME280;16713;52.916;12.834;2022-11-23T06:32:22;99764.06;;;3.18;78.49
29825;BME280;16713;52.916;12.834;2022-11-23T06:34:48;99762.72;;;3.24;77.50
29825;BME280;16713;52.916;12.834;2022-11-23T06:37:15;99765.28;;;3.21;77.92
29825;BME280;16713;52.916;12.834;2022-11-23T06:39:41;99772.94;;;3.19;76.00
29825;BME280;16713;52.916;12.834;2022-11-23T06:42:08;99768.00;;;3.21;77.79
29825;BME280;16713;52.916;12.834;2022-11-23T06:44:54;99778.97;;;3.24;76.11
29825;BME280;16713;52.916;12.834;2022-11-23T06:47:21;99782.16;;;3.26;77.46
29825;BME280;16713;52.916;12.834;2022-11-23T06:49:51;99789.81;;;3.24;76.55
29825;BME280;16713;52.916;12.834;2022-11-23T06:52:18;99788.88;;;3.20;76.48
29825;BME280;16713;52.916;12.834;2022-11-23T06:54:45;99781.22;;;3.22;77.38
29825;BME280;16713;52.916;12.834;2022-11-23T06:57:11;99787.13;;;3.24;77.00
29825;BME280;16713;52.916;12.834;2022-11-23T06:59:38;99787.88;;;3.25;76.09
29825;BME280;16713;52.916;12.834;2022-11-23T07:02:10;99792.28;;;3.38;76.99
29825;BME280;16713;52.916;12.834;2022-11-23T07:04:37;99787.19;;;3.36;75.90
29825;BME280;16713;52.916;12.834;2022-11-23T07:07:03;99797.94;;;3.24;75.38
29825;BME280;16713;52.916;12.834;2022-11-23T07:09:30;99791.44;;;3.17;76.99
29825;BME280;16713;52.916;12.834;2022-11-23T07:11:57;99793.19;;;3.21;76.54
29825;BME280;16713;52.916;12.834;2022-11-23T07:14:23;99794.63;;;3.19;76.56
29825;BME280;16713;52.916;12.834;2022-11-23T07:16:50;99792.88;;;3.23;77.72
29825;BME280;16713;52.916;12.834;2022-11-23T07:19:16;99792.19;;;3.26;76.87
29825;BME280;16713;52.916;12.834;2022-11-23T07:21:44;99794.91;;;3.26;76.56
29825;BME280;16713;52.916;12.834;2022-11-23T07:24:11;99791.53;;;3.29;76.49
29825;BME280;16713;52.916;12.834;2022-11-23T07:26:37;99798.53;;;3.30;77.48
29825;BME280;16713;52.916;12.834;2022-11-23T07:29:03;99798.53;;;3.30;76.86
29825;BME280;16713;52.916;12.834;2022-11-23T07:31:30;99796.63;;;3.30;77.05
29825;BME280;16713;52.916;12.834;2022-11-23T07:33:56;99798.53;;;3.30;76.91
29825;BME280;16713;52.916;12.834;2022-11-23T07:36:23;99804.91;;;3.34;78.16
29825;BME280;16713;52.916;12.834;2022-11-23T07:38:49;99810.56;;;3.41;77.23
29825;BME280;16713;52.916;12.834;2022-11-23T07:41:16;99808.53;;;3.38;76.92
29825;BME280;16713;52.916;12.834;2022-11-23T07:43:42;99817.13;;;3.40;75.81
29825;BME280;16713;52.916;12.834;2022-11-23T07:46:09;99815.56;;;3.39;77.60
29825;BME280;16713;52.916;12.834;2022-11-23T07:48:35;99820.66;;;3.40;75.91
29825;BME280;16713;52.916;12.834;2022-11-23T07:51:02;99817.94;;;3.40;77.46
29825;BME280;16713;52.916;12.834;2022-11-23T07:53:28;99815.38;;;3.44;76.90
29825;BME280;16713;52.916;12.834;2022-11-23T07:55:56;99816.63;;;3.46;77.24
29825;BME280;16713;52.916;12.834;2022-11-23T07:58:26;99814.03;;;3.50;76.80
29825;BME280;16713;52.916;12.834;2022-11-23T08:00:52;99818.19;;;3.47;75.71
29825;BME280;16713;52.916;12.834;2022-11-23T08:03:19;99816.44;;;3.52;76.08
29825;BME280;16713;52.916;12.834;2022-11-23T08:05:53;99821.03;;;3.51;76.47
29825;BME280;16713;52.916;12.834;2022-11-23T08:08:20;99815.09;;;3.58;76.20
29825;BME280;16713;52.916;12.834;2022-11-23T08:10:46;99818.16;;;3.56;76.37
29825;BME280;16713;52.916;12.834;2022-11-23T08:13:19;99825.41;;;3.64;77.83
29825;BME280;16713;52.916;12.834;2022-11-23T08:15:46;99830.19;;;3.67;76.13
29825;BME280;16713;52.916;12.834;2022-11-23T08:18:20;99826.03;;;3.70;77.23
29825;BME280;16713;52.916;12.834;2022-11-23T08:20:46;99827.28;;;3.72;76.83
29825;BME280;16713;52.916;12.834;2022-11-23T08:23:13;99825.84;;;3.75;76.32
29825;BME280;16713;52.916;12.834;2022-11-23T08:25:39;99829.47;;;3.79;76.81
29825;BME280;16713;52.916;12.834;2022-11-23T08:28:06;99835.34;;;3.81;77.12
29825;BME280;16713;52.916;12.834;2022-11-23T08:30:33;99833.22;;;3.86;76.32
29825;BME280;16713;52.916;12.834;2022-11-23T08:33:06;99835.50;;;3.84;76.64
29825;BME280;16713;52.916;12.834;2022-11-23T08:35:34;99842.31;;;3.90;75.93
29825;BME280;16713;52.916;12.834;2022-11-23T08:38:02;99836.06;;;3.90;74.91
29825;BME280;16713;52.916;12.834;2022-11-23T08:40:29;99835.28;;;3.89;75.82
29825;BME280;16713;52.916;12.834;2022-11-23T08:42:56;99841.50;;;3.90;76.37
29825;BME280;16713;52.916;12.834;2022-11-23T08:45:23;99840.25;;;3.87;76.10
29825;BME280;16713;52.916;12.834;2022-11-23T08:47:49;99839.25;;;3.92;75.34
29825;BME280;16713;52.916;12.834;2022-11-23T08:50:16;99834.97;;;3.91;76.11
29825;BME280;16713;52.916;12.834;2022-11-23T08:52:43;99833.34;;;3.90;74.87
29825;BME280;16713;52.916;12.834;2022-11-23T08:55:10;99837.69;;;3.91;75.03
29825;BME280;16713;52.916;12.834;2022-11-23T08:57:37;99833.34;;;3.90;76.92
29825;BME280;16713;52.916;12.834;2022-11-23T09:00:04;99838.13;;;3.93;75.38
29825;BME280;16713;52.916;12.834;2022-11-23T09:02:31;99844.00;;;3.95;76.58
29825;BME280;16713;52.916;12.834;2022-11-23T09:04:57;99846.19;;;4.01;76.06
29825;BME280;16713;52.916;12.834;2022-11-23T09:07:24;99836.72;;;4.07;75.04
29825;BME280;16713;52.916;12.834;2022-11-23T09:09:50;99834.69;;;4.04;76.74
29825;BME280;16713;52.916;12.834;2022-11-23T09:12:16;99848.38;;;4.08;75.69
29825;BME280;16713;52.916;12.834;2022-11-23T09:14:43;99847.91;;;4.06;75.84
29825;BME280;16713;52.916;12.834;2022-11-23T09:17:09;99840.81;;;4.13;77.18
29825;BME280;16713;52.916;12.834;2022-11-23T09:19:36;99851.41;;;4.27;76.37
29825;BME280;16713;52.916;12.834;2022-11-23T09:22:02;99844.41;;;4.26;75.44
29825;BME280;16713;52.916;12.834;2022-11-23T09:24:28;99843.38;;;4.30;75.89
29825;BME280;16713;52.916;12.834;2022-11-23T09:26:55;99846.78;;;4.27;76.53
29825;BME280;16713;52.916;12.834;2022-11-23T09:29:22;99846.09;;;4.30;75.58
29825;BME280;16713;52.916;12.834;2022-11-23T09:31:50;99842.72;;;4.33;75.94
29825;BME280;16713;52.916;12.834;2022-11-23T09:34:17;99848.75;;;4.39;75.90
29825;BME280;16713;52.916;12.834;2022-11-23T09:36:43;99846.75;;;4.48;76.02
29825;BME280;16713;52.916;12.834;2022-11-23T09:39:10;99847.09;;;4.46;76.01
29825;BME280;16713;52.916;12.834;2022-11-23T09:52:28;99845.00;;;4.64;74.61
29825;BME280;16713;52.916;12.834;2022-11-23T09:55:00;99849.28;;;4.65;75.94
29825;BME280;16713;52.916;12.834;2022-11-23T09:57:30;99851.91;;;4.73;76.10
29825;BME280;16713;52.916;12.834;2022-11-23T10:02:54;99847.38;;;4.77;74.75
29825;BME280;16713;52.916;12.834;2022-11-23T10:05:22;99852.72;;;4.86;75.01
29825;BME280;16713;52.916;12.834;2022-11-23T10:10:42;99846.19;;;4.87;75.82
29825;BME280;16713;52.916;12.834;2022-11-23T10:13:26;99846.06;;;4.96;75.04
29825;BME280;16713;52.916;12.834;2022-11-23T10:19:11;99843.47;;;4.99;74.70
29825;BME280;16713;52.916;12.834;2022-11-23T10:24:48;99836.31;;;5.07;74.93
29825;BME280;16713;52.916;12.834;2022-11-23T10:27:19;99838.34;;;5.10;75.60
29825;BME280;16713;52.916;12.834;2022-11-23T10:29:47;99837.03;;;5.16;75.02
29825;BME280;16713;52.916;12.834;2022-11-23T10:32:27;99828.06;;;5.15;75.33
29825;BME280;16713;52.916;12.834;2022-11-23T10:37:29;99830.91;;;5.19;74.78
29825;BME280;16713;52.916;12.834;2022-11-23T10:39:57;99834.97;;;5.25;74.36
29825;BME280;16713;52.916;12.834;2022-11-23T10:42:29;99837.34;;;5.26;74.94
29825;BME280;16713;52.916;12.834;2022-11-23T10:44:58;99829.75;;;5.20;74.53
29825;BME280;16713;52.916;12.834;2022-11-23T10:47:37;99827.28;;;5.27;74.54
29825;BME280;16713;52.916;12.834;2022-11-23T10:50:26;99836.31;;;5.31;74.53
29825;BME280;16713;52.916;12.834;2022-11-23T10:52:56;99833.53;;;5.27;75.18
29825;BME280;16713;52.916;12.834;2022-11-23T10:55:27;99835.31;;;5.23;75.05
29825;BME280;16713;52.916;12.834;2022-11-23T10:57:54;99832.94;;;5.22;75.25
29825;BME280;16713;52.916;12.834;2022-11-23T11:00:22;99835.91;;;5.29;75.14
29825;BME280;16713;52.916;12.834;2022-11-23T11:02:57;99828.72;;;5.24;74.99
29825;BME280;16713;52.916;12.834;2022-11-23T11:05:30;99839.72;;;5.28;75.23
29825;BME280;16713;52.916;12.834;2022-11-23T11:08:19;99838.50;;;5.25;75.01
29825;BME280;16713;52.916;12.834;2022-11-23T11:10:57;99834.41;;;5.31;74.21
29825;BME280;16713;52.916;12.834;2022-11-23T11:13:39;99830.34;;;5.25;75.33
29825;BME280;16713;52.916;12.834;2022-11-23T11:16:34;99835.63;;;5.34;74.94
29825;BME280;16713;52.916;12.834;2022-11-23T11:19:34;99833.72;;;5.34;74.93
29825;BME280;16713;52.916;12.834;2022-11-23T11:22:04;99840.41;;;5.37;75.22
29825;BME280;16713;52.916;12.834;2022-11-23T11:24:49;99833.97;;;5.41;74.74
29825;BME280;16713;52.916;12.834;2022-11-23T11:27:21;99829.75;;;5.44;75.00
29825;BME280;16713;52.916;12.834;2022-11-23T11:29:50;99837.13;;;5.43;74.87
29825;BME280;16713;52.916;12.834;2022-11-23T11:32:33;99835.53;;;5.42;75.04
29825;BME280;16713;52.916;12.834;2022-11-23T11:35:24;99831.09;;;5.50;75.79
29825;BME280;16713;52.916;12.834;2022-11-23T11:37:56;99827.94;;;5.48;75.30
29825;BME280;16713;52.916;12.834;2022-11-23T11:40:29;99828.38;;;5.50;75.38
29825;BME280;16713;52.916;12.834;2022-11-23T11:45:36;99831.31;;;5.57;74.85
29825;BME280;16713;52.916;12.834;2022-11-23T11:48:11;99836.75;;;5.57;75.13
29825;BME280;16713;52.916;12.834;2022-11-23T11:50:51;99833.25;;;5.56;75.15
29825;BME280;16713;52.916;12.834;2022-11-23T11:53:48;99834.63;;;5.62;74.44
29825;BME280;16713;52.916;12.834;2022-11-23T11:56:27;99839.81;;;5.67;74.64
29825;BME280;16713;52.916;12.834;2022-11-23T12:04:33;99838.78;;;5.72;75.20
29825;BME280;16713;52.916;12.834;2022-11-23T12:07:04;99833.34;;;5.72;75.32
29825;BME280;16713;52.916;12.834;2022-11-23T12:09:39;99841.94;;;5.74;75.45
29825;BME280;16713;52.916;12.834;2022-11-23T12:12:14;99836.59;;;5.77;75.11
29825;BME280;16713;52.916;12.834;2022-11-23T12:14:41;99835.03;;;5.76;75.38
29825;BME280;16713;52.916;12.834;2022-11-23T12:25:51;99830.59;;;5.84;75.70
29825;BME280;16713;52.916;12.834;2022-11-23T12:31:59;99830.44;;;5.92;75.82
29825;BME280;16713;52.916;12.834;2022-11-23T12:37:23;99829.41;;;5.97;76.23
29825;BME280;16713;52.916;12.834;2022-11-23T12:40:02;99834.97;;;6.00;75.53
29825;BME280;16713;52.916;12.834;2022-11-23T12:43:06;99834.16;;;6.00;75.52
29825;BME280;16713;52.916;12.834;2022-11-23T12:45:45;99832.69;;;6.02;75.53
29825;BME280;16713;52.916;12.834;2022-11-23T12:53:39;99831.91;;;6.02;74.33
29825;BME280;16713;52.916;12.834;2022-11-23T12:56:42;99824.44;;;5.99;74.87
29825;BME280;16713;52.916;12.834;2022-11-23T12:59:12;99835.75;;;6.01;74.66
29825;BME280;16713;52.916;12.834;2022-11-23T13:01:48;99831.78;;;5.98;74.77
29825;BME280;16713;52.916;12.834;2022-11-23T13:08:14;99836.00;;;5.96;74.91
29825;BME280;16713;52.916;12.834;2022-11-23T13:21:39;99839.41;;;5.93;74.96
29825;BME280;16713;52.916;12.834;2022-11-23T13:29:57;99833.63;;;5.94;75.33
29825;BME280;16713;52.916;12.834;2022-11-23T13:42:50;99829.66;;;5.92;74.68
29825;BME280;16713;52.916;12.834;2022-11-23T13:45:23;99832.47;;;5.95;75.21
29825;BME280;16713;52.916;12.834;2022-11-23T13:48:17;99836.00;;;5.96;75.25
29825;BME280;16713;52.916;12.834;2022-11-23T13:51:04;99832.81;;;5.94;75.39
29825;BME280;16713;52.916;12.834;2022-11-23T13:53:41;99829.31;;;5.93;74.61
29825;BME280;16713;52.916;12.834;2022-11-23T13:56:25;99829.41;;;5.97;74.93
29825;BME280;16713;52.916;12.834;2022-11-23T13:58:56;99835.19;;;5.95;75.11
29825;BME280;16713;52.916;12.834;2022-11-23T14:04:46;99835.91;;;5.92;75.39
29825;BME280;16713;52.916;12.834;2022-11-23T14:07:24;99836.13;;;5.87;75.34
29825;BME280;16713;52.916;12.834;2022-11-23T14:10:18;99831.50;;;5.88;75.56
29825;BME280;16713;52.916;12.834;2022-11-23T14:13:03;99831.16;;;5.89;75.52
29825;BME280;16713;52.916;12.834;2022-11-23T14:15:36;99833.06;;;5.89;75.49
29825;BME280;16713;52.916;12.834;2022-11-23T14:21:12;99832.84;;;5.82;75.63
29825;BME280;16713;52.916;12.834;2022-11-23T14:24:05;99835.25;;;5.83;75.36
29825;BME280;16713;52.916;12.834;2022-11-23T14:39:58;99848.63;;;5.76;75.17
29825;BME280;16713;52.916;12.834;2022-11-23T14:42:28;99847.53;;;5.65;75.44
29825;BME280;16713;52.916;12.834;2022-11-23T14:45:01;99845.56;;;5.66;75.52
29825;BME280;16713;52.916;12.834;2022-11-23T14:47:30;99839.25;;;5.62;76.14
29825;BME280;16713;52.916;12.834;2022-11-23T14:49:57;99849.44;;;5.65;75.86
29825;BME280;16713;52.916;12.834;2022-11-23T14:52:29;99844.81;;;5.65;75.71
29825;BME280;16713;52.916;12.834;2022-11-23T14:54:59;99845.56;;;5.66;74.92
29825;BME280;16713;52.916;12.834;2022-11-23T14:57:43;99843.88;;;5.61;76.00
29825;BME280;16713;52.916;12.834;2022-11-23T15:00:42;99849.44;;;5.65;76.01
29825;BME280;16713;52.916;12.834;2022-11-23T15:03:14;99848.22;;;5.62;75.76
29825;BME280;16713;52.916;12.834;2022-11-23T15:06:08;99850.25;;;5.65;76.21
29825;BME280;16713;52.916;12.834;2022-11-23T15:08:47;99845.03;;;5.60;76.01